Time;durP1;ratioP1;P1;durP2;ratioP2;P2;SDS_P1;SDS_P2;PMS_P1;PMS_P2;Temp;Humidity;BMP_temperature;BMP_pressure;BME280_temperature;BME280_humidity;BME280_pressure;Samples;Min_cycle;Max_cycle;Signal;HPM_P1;HPM_P2
2023/08/16 00:01:20;;;;;;;0.90;0.82;;;;;;;22.46;100.00;100088.94;4783039;29;20043;-90
2023/08/16 00:03:45;;;;;;;1.05;0.82;;;;;;;22.51;100.00;100096.66;4784651;29;20127;-89
2023/08/16 00:06:12;;;;;;;1.42;1.08;;;;;;;22.42;100.00;100077.91;4766491;29;20043;-90
2023/08/16 00:08:39;;;;;;;0.73;0.70;;;;;;;22.53;100.00;100111.03;4767166;29;20047;-90
2023/08/16 00:11:04;;;;;;;1.42;1.02;;;;;;;22.36;100.00;100084.88;4769046;29;20039;-90
2023/08/16 00:13:31;;;;;;;1.27;1.05;;;;;;;22.48;100.00;100111.84;4781968;29;20458;-90
2023/08/16 00:15:57;;;;;;;4.70;1.80;;;;;;;22.35;100.00;100097.47;4764398;29;20063;-90
2023/08/16 00:18:22;;;;;;;0.95;0.88;;;;;;;21.99;100.00;100054.13;4769047;29;20070;-91
2023/08/16 00:20:48;;;;;;;5.35;2.92;;;;;;;22.18;100.00;100081.31;4766271;30;20137;-90
2023/08/16 00:23:14;;;;;;;1.00;0.85;;;;;;;22.14;100.00;100088.50;4788686;29;20414;-90
2023/08/16 00:25:39;;;;;;;3.38;1.48;;;;;;;21.98;100.00;100101.38;4799576;29;20057;-90
2023/08/16 00:28:05;;;;;;;2.00;1.38;;;;;;;;;;4775383;29;20047;-90
2023/08/16 00:30:31;;;;;;;1.58;1.48;;;;;;;21.82;100.00;100104.94;4779583;29;20038;-90
2023/08/16 00:32:56;;;;;;;1.35;1.25;;;;;;;21.88;100.00;100119.81;4796007;29;20086;-90
2023/08/16 00:35:22;;;;;;;1.40;1.25;;;;;;;21.84;100.00;100097.47;4779699;29;20137;-90
2023/08/16 00:37:48;;;;;;;0.55;0.55;;;;;;;21.66;100.00;100077.47;4785175;29;20054;-90
2023/08/16 00:40:15;;;;;;;1.05;0.95;;;;;;;21.91;100.00;100107.50;4765998;30;20039;-91
2023/08/16 00:42:40;;;;;;;1.30;1.20;;;;;;;21.90;100.00;100111.59;4785217;29;20044;-90
2023/08/16 00:45:06;;;;;;;1.63;1.15;;;;;;;21.93;100.00;100109.81;4787479;29;20191;-90
2023/08/16 00:47:33;;;;;;;0.82;0.60;;;;;;;21.82;100.00;100108.53;4766244;29;20475;-90
2023/08/16 00:49:59;;;;;;;2.40;1.85;;;;;;;21.72;100.00;100098.75;4766851;30;20039;-90
2023/08/16 00:52:24;;;;;;;0.95;0.75;;;;;;;21.66;100.00;100088.75;4768188;29;20568;-90
2023/08/16 00:54:50;;;;;;;1.50;1.40;;;;;;;21.62;100.00;100091.06;4778000;29;20164;-90
2023/08/16 00:57:16;;;;;;;0.93;0.93;;;;;;;21.55;100.00;100080.28;4765126;29;20042;-90
2023/08/16 00:59:41;;;;;;;1.30;0.98;;;;;;;21.34;100.00;100060.00;4775438;29;20515;-89
2023/08/16 01:02:07;;;;;;;1.13;0.93;;;;;;;21.38;100.00;100078.22;4780583;29;20575;-90
2023/08/16 01:04:33;;;;;;;0.88;0.85;;;;;;;21.39;100.00;100081.81;4790796;29;20126;-90
2023/08/16 01:07:00;;;;;;;1.27;0.88;;;;;;;21.31;100.00;100078.69;4806545;29;20419;-89
2023/08/16 01:09:26;;;;;;;1.00;0.90;;;;;;;21.35;100.00;100082.03;4789534;29;20482;-90
2023/08/16 01:12:02;;;;;;;1.27;0.88;;;;;;;21.22;100.00;100081.78;4786234;29;20058;-89
2023/08/16 01:14:37;;;;;;;0.57;0.57;;;;;;;21.24;100.00;100078.41;4787809;29;20054;-90
2023/08/16 01:17:04;;;;;;;1.08;0.63;;;;;;;21.14;100.00;100063.81;4801910;29;20050;-90
2023/08/16 01:19:32;;;;;;;1.70;0.95;;;;;;;21.23;100.00;100074.81;4802416;29;20093;-91
2023/08/16 01:22:13;;;;;;;0.43;0.43;;;;;;;21.26;100.00;100082.28;4788284;29;20670;-91
2023/08/16 01:24:53;;;;;;;1.05;0.95;;;;;;;21.09;100.00;100060.94;4796724;29;20054;-90
2023/08/16 01:27:21;;;;;;;1.85;1.15;;;;;;;21.09;100.00;100050.41;4797304;29;20047;-90
2023/08/16 01:29:48;;;;;;;1.35;0.82;;;;;;;21.12;100.00;100071.22;4786385;29;20520;-91
2023/08/16 01:32:15;;;;;;;0.90;0.80;;;;;;;20.73;100.00;100034.41;4799610;29;20150;-90
2023/08/16 01:34:41;;;;;;;1.27;1.17;;;;;;;20.78;100.00;100044.94;4811869;29;20695;-90
2023/08/16 01:37:07;;;;;;;0.80;0.80;;;;;;;20.72;100.00;100028.00;4799505;29;20050;-91
2023/08/16 01:39:32;;;;;;;1.10;0.88;;;;;;;20.94;100.00;100055.50;4809798;29;20085;-89
2023/08/16 01:41:58;;;;;;;1.42;0.90;;;;;;;20.78;100.00;100037.28;4775422;29;20473;-89
2023/08/16 01:44:24;;;;;;;0.85;0.82;;;;;;;20.88;100.00;100063.94;4774730;29;20042;-90
2023/08/16 01:46:50;;;;;;;1.58;1.13;;;;;;;20.82;100.00;100054.72;4787566;29;20047;-90
2023/08/16 01:49:16;;;;;;;0.90;0.85;;;;;;;20.53;100.00;100049.47;4768799;29;20479;-91
2023/08/16 01:51:42;;;;;;;2.45;1.58;;;;;;;20.69;100.00;100064.91;4790911;29;20050;-96
2023/08/16 01:54:07;;;;;;;0.98;0.95;;;;;;;20.56;100.00;100047.66;4805595;29;20046;-96
2023/08/16 01:56:33;;;;;;;0.95;0.82;;;;;;;20.44;100.00;100053.25;4794897;29;20145;-96
2023/08/16 01:58:58;;;;;;;0.90;0.90;;;;;;;20.48;100.00;100065.06;4808988;29;20060;-96
2023/08/16 02:01:24;;;;;;;0.93;0.52;;;;;;;20.47;100.00;100062.72;4824955;29;20069;-96
2023/08/16 02:03:49;;;;;;;0.90;0.85;;;;;;;20.52;100.00;100069.69;4807419;29;20050;-95
2023/08/16 02:06:15;;;;;;;0.47;0.45;;;;;;;20.23;100.00;100037.75;4821823;29;20059;-96
2023/08/16 02:08:41;;;;;;;1.35;0.70;;;;;;;20.06;100.00;100019.97;4801929;29;20084;-95
2023/08/16 02:11:06;;;;;;;0.40;0.40;;;;;;;20.16;100.00;100037.44;4787095;29;20043;-96
2023/08/16 02:13:32;;;;;;;1.13;1.02;;;;;;;20.06;100.00;100027.66;4810716;29;20057;-96
2023/08/16 02:15:59;;;;;;;0.93;0.93;;;;;;;20.11;100.00;100041.75;4823497;29;20046;-96
2023/08/16 02:18:27;;;;;;;1.92;1.63;;;;;;;19.98;100.00;100022.47;4780667;29;20043;-96
2023/08/16 02:20:52;;;;;;;1.40;1.02;;;;;;;19.98;100.00;100038.59;4806343;29;20180;-95
2023/08/16 02:23:18;;;;;;;1.27;0.75;;;;;;;19.87;100.00;100016.78;4810806;29;20058;-96
2023/08/16 02:25:44;;;;;;;0.52;0.52;;;;;;;19.86;100.00;100014.47;4793754;29;20180;-96
2023/08/16 02:28:09;;;;;;;3.95;1.30;;;;;;;19.77;100.00;100015.44;4808721;29;20042;-96
2023/08/16 02:30:37;;;;;;;1.48;1.38;;;;;;;19.67;100.00;100002.81;4811610;29;20141;-96
2023/08/16 02:33:02;;;;;;;1.48;1.02;;;;;;;19.81;100.00;100015.22;4806898;29;20062;-96
2023/08/16 02:35:28;;;;;;;1.23;1.13;;;;;;;20.18;100.00;100063.81;4809465;29;20042;-95
2023/08/16 02:37:55;;;;;;;3.05;2.10;;;;;;;20.10;100.00;100057.09;4804520;29;20081;-96
2023/08/16 02:40:21;;;;;;;1.00;0.82;;;;;;;20.06;100.00;100062.22;4812095;29;20137;-96
2023/08/16 02:42:49;;;;;;;0.57;0.57;;;;;;;19.72;100.00;100026.66;4811345;29;20513;-96
2023/08/16 02:45:15;;;;;;;0.93;0.88;;;;;;;19.58;100.00;100013.50;4798226;29;20050;-95
2023/08/16 02:47:44;;;;;;;1.33;1.05;;;;;;;19.56;100.00;100011.19;4805718;29;20047;-96
2023/08/16 02:50:10;;;;;;;2.00;1.58;;;;;;;19.61;100.00;100021.72;4825415;29;20050;-96
2023/08/16 02:52:35;;;;;;;0.93;0.93;;;;;;;19.42;100.00;99993.16;4793938;29;20062;-95
2023/08/16 02:55:01;;;;;;;0.63;0.60;;;;;;;19.47;100.00;100009.31;4836755;29;20039;-96
2023/08/16 02:57:27;;;;;;;0.55;0.50;;;;;;;19.51;100.00;100018.31;4802850;29;20488;-96
2023/08/16 02:59:53;;;;;;;2.47;1.55;;;;;;;19.49;100.00;100015.22;4788909;29;20110;-95
2023/08/16 03:02:19;;;;;;;0.73;0.73;;;;;;;19.60;100.00;100037.06;4776360;29;20063;-96
2023/08/16 03:04:45;;;;;;;1.10;1.00;;;;;;;19.53;100.00;100038.25;4790512;29;20133;-95
2023/08/16 03:07:11;;;;;;;1.27;0.98;;;;;;;19.54;100.00;100034.19;4777427;29;20479;-91
2023/08/16 03:09:37;;;;;;;2.08;1.38;;;;;;;19.43;100.00;100034.09;4757356;29;20047;-91
2023/08/16 03:12:03;;;;;;;1.30;0.82;;;;;;;19.61;100.00;100049.09;4747605;29;20051;-91
2023/08/16 03:14:29;;;;;;;1.20;1.08;;;;;;;19.62;100.00;100050.59;4764072;29;20048;-90
2023/08/16 03:16:56;;;;;;;1.58;1.48;;;;;;;19.60;100.00;100053.94;4781910;29;20069;-90
2023/08/16 03:19:22;;;;;;;1.35;1.27;;;;;;;19.70;100.00;100062.97;4782273;29;20073;-90
2023/08/16 03:21:48;;;;;;;1.13;0.90;;;;;;;19.68;100.00;100059.88;4764340;29;20042;-90
2023/08/16 03:24:13;;;;;;;2.20;0.95;;;;;;;19.49;100.00;100037.72;4778243;29;20082;-90
2023/08/16 03:26:39;;;;;;;1.45;1.05;;;;;;;19.34;100.00;100025.78;4765475;29;20054;-90
2023/08/16 03:29:05;;;;;;;0.90;0.80;;;;;;;19.42;100.00;100052.25;4768343;29;20379;-91
2023/08/16 03:31:31;;;;;;;0.50;0.40;;;;;;;19.37;100.00;100044.47;4765672;29;20128;-90
2023/08/16 03:33:57;;;;;;;1.92;1.75;;;;;;;19.31;100.00;100032.44;4762995;29;20050;-90
2023/08/16 03:36:24;;;;;;;0.88;0.65;;;;;;;19.42;100.00;100063.50;4774908;29;20034;-90
2023/08/16 03:38:49;;;;;;;0.68;0.68;;;;;;;19.43;100.00;100073.47;4779148;29;20058;-90
2023/08/16 03:41:15;;;;;;;0.90;0.65;;;;;;;19.46;100.00;100072.47;4762009;30;20528;-90
2023/08/16 03:43:40;;;;;;;1.00;0.85;;;;;;;19.15;100.00;100021.78;4767359;29;20663;-91
2023/08/16 03:46:07;;;;;;;1.00;0.85;;;;;;;19.31;100.00;100071.03;4763884;29;20627;-91
2023/08/16 03:48:32;;;;;;;1.52;1.30;;;;;;;19.28;100.00;100078.41;4747516;29;20051;-91
2023/08/16 03:50:59;;;;;;;1.00;0.90;;;;;;;19.27;100.00;100071.25;4778412;29;20058;-90
2023/08/16 03:53:25;;;;;;;0.28;0.28;;;;;;;19.32;100.00;100069.75;4766888;30;20062;-91
2023/08/16 03:55:57;;;;;;;4.40;0.88;;;;;;;19.14;100.00;100056.78;4793556;29;20384;-91
2023/08/16 03:58:23;;;;;;;0.63;0.37;;;;;;;18.91;100.00;100038.94;4776020;29;20509;-91
2023/08/16 04:00:51;;;;;;;1.10;0.68;;;;;;;18.97;100.00;100064.25;4773385;29;20501;-91
2023/08/16 04:03:17;;;;;;;1.25;1.15;;;;;;;19.04;100.00;100075.09;4760841;29;20051;-90
2023/08/16 04:05:42;;;;;;;1.05;0.95;;;;;;;18.87;100.00;100060.84;4796542;29;20046;-90
2023/08/16 04:08:08;;;;;;;1.40;1.30;;;;;;;18.98;100.00;100071.44;4783262;29;20117;-89
2023/08/16 04:10:36;;;;;;;1.23;1.00;;;;;;;18.95;100.00;100049.94;4783102;29;20051;-91
2023/08/16 04:13:02;;;;;;;1.15;1.05;;;;;;;18.70;100.00;100012.09;4784962;29;20051;-90
2023/08/16 04:15:28;;;;;;;0.70;0.68;;;;;;;18.87;100.00;100054.44;4787603;29;20066;-90
2023/08/16 04:17:54;;;;;;;0.65;0.65;;;;;;;19.05;100.00;100083.00;4777305;30;20089;-90
2023/08/16 04:20:20;;;;;;;1.15;0.98;;;;;;;19.11;100.00;100083.09;4787615;29;20047;-92
2023/08/16 04:22:46;;;;;;;1.13;0.73;;;;;;;19.04;100.00;100072.28;4797405;29;20149;-96
2023/08/16 04:25:12;;;;;;;1.77;0.95;;;;;;;19.05;100.00;100073.81;4783503;29;20050;-96
2023/08/16 04:27:38;;;;;;;1.25;0.80;;;;;;;18.75;100.00;100019.06;4784019;29;20062;-96
2023/08/16 04:30:06;;;;;;;1.50;1.40;;;;;;;18.91;100.00;100044.53;4776564;29;20107;-96
2023/08/16 04:32:32;;;;;;;1.08;0.85;;;;;;;18.94;100.00;100056.81;4783302;29;20058;-96
2023/08/16 04:35:10;;;;;;;1.88;1.00;;;;;;;18.81;100.00;100022.69;4806653;29;20059;-95
2023/08/16 04:37:38;;;;;;;1.13;0.77;;;;;;;19.15;100.00;100068.81;4769705;30;20051;-96
2023/08/16 04:40:05;;;;;;;2.53;0.63;;;;;;;18.90;100.00;100030.97;4780442;29;20046;-96
2023/08/16 04:42:34;;;;;;;0.20;0.20;;;;;;;18.92;100.00;100037.66;4782738;29;20039;-96
2023/08/16 04:45:01;;;;;;;0.55;0.52;;;;;;;19.33;100.00;100091.00;4779335;29;20052;-96
2023/08/16 04:47:27;;;;;;;0.50;0.50;;;;;;;18.97;100.00;100044.59;4782637;29;20057;-96
2023/08/16 04:49:54;;;;;;;0.75;0.63;;;;;;;19.18;100.00;100062.97;4783277;29;20050;-94
2023/08/16 04:52:19;;;;;;;1.00;0.77;;;;;;;19.36;100.00;100078.75;4765729;30;20047;-96
2023/08/16 04:54:45;;;;;;;1.17;1.08;;;;;;;19.17;100.00;100050.16;4779696;29;20035;-96
2023/08/16 04:57:11;;;;;;;2.05;1.58;;;;;;;19.27;100.00;100051.56;4786379;29;20124;-95
2023/08/16 04:59:38;;;;;;;0.80;0.80;;;;;;;19.16;100.00;100048.66;4776402;29;20051;-95
2023/08/16 05:02:05;;;;;;;0.43;0.43;;;;;;;19.42;100.00;100077.56;4783832;29;20051;-96
2023/08/16 05:04:31;;;;;;;0.82;0.75;;;;;;;19.18;100.00;100051.72;4794366;29;20039;-94
2023/08/16 05:06:57;;;;;;;7.88;2.63;;;;;;;19.40;100.00;100090.56;4768482;29;20053;-94
2023/08/16 05:09:22;;;;;;;0.77;0.77;;;;;;;19.45;100.00;100087.81;4765117;29;20086;-95
2023/08/16 05:11:48;;;;;;;1.95;0.93;;;;;;;19.42;100.00;100088.81;4793088;29;20042;-96
2023/08/16 05:14:14;;;;;;;1.83;1.05;;;;;;;19.28;100.00;100064.38;4774020;30;20051;-96
2023/08/16 05:16:40;;;;;;;1.90;1.63;;;;;;;19.57;100.00;100090.75;4775299;29;20115;-96
2023/08/16 05:19:06;;;;;;;1.17;1.05;;;;;;;19.40;100.00;100062.44;4769706;29;20050;-95
2023/08/16 05:21:35;;;;;;;1.65;1.42;;;;;;;19.43;100.00;100062.22;4794787;29;20039;-95
2023/08/16 05:24:01;;;;;;;1.17;1.08;;;;;;;19.45;100.00;100064.56;4782170;30;20188;-96
2023/08/16 05:26:31;;;;;;;1.52;1.20;;;;;;;19.59;100.00;100108.66;4776597;30;20039;-96
2023/08/16 05:28:58;;;;;;;2.28;1.80;;;;;;;19.38;100.00;100085.41;4791789;30;20055;-95
2023/08/16 05:31:24;;;;;;;1.15;0.88;;;;;;;19.49;100.00;100093.25;4778435;29;20035;-95
2023/08/16 05:33:55;;;;;;;1.25;1.15;;;;;;;19.65;100.00;100097.47;4795083;29;20146;-96
2023/08/16 05:36:21;;;;;;;5.53;1.83;;;;;;;19.91;100.00;100092.56;4779704;29;20047;-95
2023/08/16 07:38:01;;;;;;;1.93;1.37;;;;;;;23.06;100.00;100194.72;4161056;27;20698;-89
2023/08/16 07:40:27;;;;;;;0.90;0.80;;;;;;;23.23;100.00;100187.69;4805063;29;20766;-90
2023/08/16 07:42:52;;;;;;;0.80;0.80;;;;;;;23.33;100.00;100171.19;4813250;29;20137;-89
2023/08/16 07:45:18;;;;;;;2.00;1.55;;;;;;;23.45;100.00;100166.28;4816883;29;20050;-90
2023/08/16 07:47:43;;;;;;;1.20;0.82;;;;;;;23.80;100.00;100179.69;4811291;29;20546;-89
2023/08/16 07:50:10;;;;;;;1.30;1.20;;;;;;;24.15;100.00;100182.53;4833469;29;20049;-88
2023/08/16 07:52:35;;;;;;;1.27;1.20;;;;;;;24.55;100.00;100178.06;4820933;29;20111;-89
2023/08/16 07:55:01;;;;;;;1.08;1.02;;;;;;;25.04;100.00;100176.78;4821260;29;20058;-90
2023/08/16 07:57:26;;;;;;;1.35;1.00;;;;;;;25.60;100.00;100183.84;4835653;29;20121;-90
2023/08/16 07:59:52;;;;;;;0.65;0.65;;;;;;;25.93;100.00;100192.63;4817886;29;20341;-92
2023/08/16 08:02:17;;;;;;;2.85;1.50;;;;;;;25.86;99.73;100176.22;4816993;29;20185;-90
2023/08/16 08:04:44;;;;;;;0.85;0.70;;;;;;;25.80;99.82;100189.72;4809418;29;20583;-91
2023/08/16 08:07:11;;;;;;;2.33;0.98;;;;;;;25.68;100.00;100185.50;4804241;29;20526;-91
2023/08/16 08:09:36;;;;;;;1.00;0.95;;;;;;;25.96;100.00;100190.81;4812796;29;20108;-91
2023/08/16 08:12:02;;;;;;;1.13;1.02;;;;;;;26.42;99.02;100198.84;4817673;29;20086;-89
2023/08/16 08:14:28;;;;;;;1.27;1.15;;;;;;;26.84;91.51;100191.38;4791282;29;20468;-91
2023/08/16 08:16:56;;;;;;;12.73;2.22;;;;;;;27.28;88.61;100186.88;4818188;29;20034;-91
2023/08/16 08:19:22;;;;;;;1.48;1.38;;;;;;;27.58;81.38;100186.50;4801139;29;20072;-90
2023/08/16 08:21:47;;;;;;;0.98;0.98;;;;;;;27.63;78.70;100205.56;4806435;29;20550;-91
2023/08/16 08:24:15;;;;;;;1.00;0.98;;;;;;;27.55;79.57;100199.00;4820723;29;20479;-89
2023/08/16 08:26:41;;;;;;;1.92;1.83;;;;;;;27.53;79.37;100187.41;4790834;29;20061;-89
2023/08/16 08:29:09;;;;;;;1.15;0.82;;;;;;;27.73;74.88;100195.22;4812681;29;20495;-89
2023/08/16 08:31:34;;;;;;;1.48;1.38;;;;;;;27.85;69.45;100217.78;4773488;29;20061;-89
2023/08/16 08:34:00;;;;;;;0.90;0.68;;;;;;;28.06;72.20;100227.13;4818999;29;20042;-89
2023/08/16 08:36:25;;;;;;;0.88;0.82;;;;;;;28.32;70.80;100218.47;4802199;29;20061;-88
2023/08/16 08:38:51;;;;;;;1.55;1.45;;;;;;;28.25;69.40;100230.56;4838025;29;20065;-88
2023/08/16 08:41:19;;;;;;;2.00;1.55;;;;;;;28.19;69.35;100212.81;4837892;29;20058;-91
2023/08/16 08:43:45;;;;;;;1.63;1.50;;;;;;;28.11;70.95;100229.09;4840808;29;20069;-89
2023/08/16 08:46:10;;;;;;;1.05;0.95;;;;;;;27.83;72.92;100236.19;4826049;29;20163;-91
2023/08/16 08:48:36;;;;;;;2.00;1.30;;;;;;;27.82;74.17;100220.41;4836419;29;20080;-91
2023/08/16 08:51:02;;;;;;;1.52;1.38;;;;;;;27.96;71.54;100220.34;4837320;29;20075;-92
2023/08/16 08:53:27;;;;;;;1.25;1.10;;;;;;;27.90;72.96;100222.59;4838343;29;20183;-92
2023/08/16 08:55:55;;;;;;;1.65;1.50;;;;;;;27.64;73.27;100224.19;4828691;29;20458;-91
2023/08/16 08:58:22;;;;;;;1.45;1.00;;;;;;;27.39;71.50;100208.63;4840531;29;20186;-91
2023/08/16 09:00:52;;;;;;;1.67;1.52;;;;;;;27.38;72.55;100217.75;4838609;29;20500;-92
2023/08/16 09:03:21;;;;;;;1.15;1.05;;;;;;;27.54;70.79;100228.78;4823077;29;20087;-91
2023/08/16 09:05:52;;;;;;;1.48;1.35;;;;;;;27.91;71.08;100230.56;4839305;29;20125;-91
2023/08/16 09:08:21;;;;;;;1.20;1.10;;;;;;;28.07;71.85;100228.63;4851349;29;20105;-93
2023/08/16 09:10:47;;;;;;;1.23;1.08;;;;;;;28.33;69.73;100220.00;4830236;29;20045;-94
2023/08/16 09:13:14;;;;;;;2.70;2.00;;;;;;;28.47;68.86;100230.00;4830883;29;20054;-94
2023/08/16 09:15:40;;;;;;;1.30;1.08;;;;;;;28.65;66.10;100233.97;4838646;29;20088;-92
2023/08/16 09:18:06;;;;;;;1.90;1.38;;;;;;;28.49;65.74;100233.09;4825288;29;20066;-94
2023/08/16 09:20:32;;;;;;;0.82;0.82;;;;;;;28.26;67.32;100229.25;4855023;29;20050;-93
2023/08/16 09:22:57;;;;;;;1.90;0.95;;;;;;;28.16;67.26;100228.97;4829234;29;20091;-94
2023/08/16 09:25:24;;;;;;;1.90;1.50;;;;;;;27.65;70.55;100228.56;4832633;29;20549;-94
2023/08/16 09:27:52;;;;;;;1.13;1.02;;;;;;;27.38;72.20;100218.50;4849508;29;20120;-93
2023/08/16 09:30:18;;;;;;;1.65;1.15;;;;;;;27.36;73.20;100221.91;4819356;29;20046;-95
2023/08/16 09:32:45;;;;;;;0.43;0.43;;;;;;;27.38;73.27;100221.34;4832748;29;20064;-93
2023/08/16 09:35:14;;;;;;;4.47;1.15;;;;;;;27.43;72.47;100228.25;4837157;29;20503;-93
2023/08/16 09:37:42;;;;;;;1.10;1.00;;;;;;;26.86;73.17;100208.66;4838611;29;20054;-93
2023/08/16 09:40:10;;;;;;;1.02;1.00;;;;;;;26.57;76.57;100215.38;4839400;29;20103;-93
2023/08/16 09:42:36;;;;;;;1.67;1.23;;;;;;;26.79;77.38;100214.22;4807233;29;20050;-93
2023/08/16 09:45:02;;;;;;;1.67;1.50;;;;;;;26.97;78.59;100212.63;4838044;29;20530;-94
2023/08/16 09:47:29;;;;;;;0.73;0.73;;;;;;;26.95;77.02;100212.38;4821585;29;20047;-93
2023/08/16 09:49:55;;;;;;;1.02;0.95;;;;;;;26.43;77.84;100210.97;4839272;29;20034;-94
2023/08/16 09:52:21;;;;;;;1.38;1.00;;;;;;;26.68;80.10;100214.44;4823586;29;20114;-93
2023/08/16 09:54:48;;;;;;;1.27;1.08;;;;;;;26.80;80.57;100195.84;4823082;29;20041;-93
2023/08/16 09:57:14;;;;;;;1.05;0.90;;;;;;;27.16;78.21;100213.28;4842906;29;20788;-93
2023/08/16 09:59:40;;;;;;;0.38;0.38;;;;;;;26.98;77.58;100180.75;4820333;29;20058;-93
2023/08/16 10:02:11;;;;;;;1.83;1.00;;;;;;;26.98;77.93;100208.44;4838310;29;20484;-93
2023/08/16 10:04:37;;;;;;;0.93;0.93;;;;;;;26.99;79.29;100215.69;4822879;29;20093;-93
2023/08/16 10:07:05;;;;;;;1.20;0.90;;;;;;;27.10;79.96;100221.16;4828830;29;20506;-96
2023/08/16 10:09:34;;;;;;;0.98;0.95;;;;;;;27.29;77.64;100214.03;4831540;29;20070;-94
2023/08/16 10:12:04;;;;;;;1.42;1.33;;;;;;;27.46;75.48;100212.91;4840802;29;20034;-96
2023/08/16 10:14:30;;;;;;;3.78;2.83;;;;;;;27.37;75.10;100191.34;4818651;29;20041;-96
2023/08/16 10:17:03;;;;;;;1.58;1.23;;;;;;;27.43;73.71;100226.16;4827884;29;20066;-96
2023/08/16 10:19:33;;;;;;;2.22;1.23;;;;;;;27.51;75.57;100229.91;4811101;29;20046;-96
2023/08/16 10:22:00;;;;;;;1.63;1.00;;;;;;;27.66;73.98;100220.81;4840052;29;20050;-95
2023/08/16 10:24:29;;;;;;;0.75;0.75;;;;;;;27.81;72.50;100226.66;4823911;29;20030;-95
2023/08/16 10:26:57;;;;;;;1.50;0.80;;;;;;;27.70;69.18;100221.97;4841882;29;20046;-95
2023/08/16 10:29:23;;;;;;;0.73;0.73;;;;;;;27.61;71.86;100207.44;4827900;29;20038;-95
2023/08/16 10:31:51;;;;;;;0.90;0.70;;;;;;;27.70;67.05;100221.97;4826736;29;20060;-96
2023/08/16 10:34:19;;;;;;;1.25;1.15;;;;;;;27.78;68.21;100211.41;4840351;29;20046;-95
2023/08/16 10:36:45;;;;;;;1.00;0.90;;;;;;;27.77;66.29;100209.13;4822726;29;20042;-94
2023/08/16 10:39:20;;;;;;;1.10;1.02;;;;;;;27.28;66.75;100175.47;4817919;29;20090;-95
2023/08/16 10:41:46;;;;;;;0.95;0.90;;;;;;;27.24;67.76;100185.66;4820226;29;20141;-93
2023/08/16 10:44:21;;;;;;;1.15;1.08;;;;;;;27.65;69.80;100227.81;4849436;29;20038;-92
2023/08/16 10:46:50;;;;;;;1.38;0.88;;;;;;;27.64;68.84;100200.63;4816584;29;20050;-92
2023/08/16 10:49:15;;;;;;;0.90;0.82;;;;;;;27.64;67.32;100198.53;4820988;29;20113;-92
2023/08/16 10:51:45;;;;;;;1.10;0.90;;;;;;;27.61;69.50;100199.66;4820227;29;20129;-93
2023/08/16 10:54:15;;;;;;;2.67;1.00;;;;;;;27.68;70.15;100213.22;4831544;29;20056;-94
2023/08/16 10:56:47;;;;;;;0.80;0.80;;;;;;;27.54;70.88;100200.31;4833479;29;20445;-94
2023/08/16 10:59:13;;;;;;;1.30;1.20;;;;;;;27.64;71.22;100206.31;4859601;29;20534;-93
2023/08/16 11:01:47;;;;;;;0.77;0.70;;;;;;;27.55;72.66;100209.63;4834134;29;20054;-94
2023/08/16 11:04:16;;;;;;;1.33;1.23;;;;;;;27.47;72.72;100215.22;4821015;29;20054;-93
2023/08/16 11:06:41;;;;;;;1.10;0.90;;;;;;;27.44;74.47;100221.25;4837281;29;20061;-92
2023/08/16 11:09:07;;;;;;;1.45;1.33;;;;;;;27.36;74.48;100210.53;4839280;29;20060;-94
2023/08/16 11:11:33;;;;;;;1.13;1.02;;;;;;;27.46;76.01;100213.66;4822339;29;20042;-93
2023/08/16 11:14:00;;;;;;;0.93;0.93;;;;;;;27.65;75.87;100217.19;4837633;29;20085;-93
2023/08/16 11:16:27;;;;;;;3.15;1.58;;;;;;;27.56;76.58;100200.53;4837741;29;20050;-93
2023/08/16 11:18:52;;;;;;;0.77;0.77;;;;;;;27.60;75.91;100203.81;4821488;29;20109;-94
2023/08/16 11:21:19;;;;;;;0.80;0.77;;;;;;;27.54;76.22;100203.16;4851149;29;20049;-93
2023/08/16 11:23:45;;;;;;;2.08;1.85;;;;;;;27.57;76.26;100213.47;4835400;29;20046;-93
2023/08/16 11:26:11;;;;;;;0.57;0.57;;;;;;;27.54;76.11;100208.84;4826323;29;20407;-94
2023/08/16 11:28:38;;;;;;;1.38;1.02;;;;;;;27.42;76.67;100190.44;4810748;29;20061;-93
2023/08/16 11:31:05;;;;;;;0.65;0.65;;;;;;;27.43;77.87;100208.31;4818634;29;20084;-92
2023/08/16 11:33:35;;;;;;;1.10;0.60;;;;;;;27.31;77.00;100202.84;4812035;29;20125;-94
2023/08/16 11:36:02;;;;;;;2.17;1.45;;;;;;;27.42;77.89;100189.69;4809691;29;20137;-92
2023/08/16 11:38:27;;;;;;;1.38;0.90;;;;;;;27.33;77.59;100205.16;4818106;29;20077;-94
2023/08/16 11:40:54;;;;;;;2.65;2.10;;;;;;;27.13;79.96;100203.75;4791284;29;20507;-93
2023/08/16 11:43:30;;;;;;;2.03;1.15;;;;;;;27.02;81.29;100191.81;4819307;29;20069;-92
2023/08/16 11:45:57;;;;;;;1.00;0.95;;;;;;;27.05;82.71;100202.13;4802584;29;20042;-93
2023/08/16 11:48:29;;;;;;;0.52;0.52;;;;;;;27.27;82.97;100195.94;4789202;29;20051;-93
2023/08/16 11:50:55;;;;;;;2.22;1.45;;;;;;;27.31;81.55;100185.75;4804277;29;20038;-92
2023/08/16 11:53:22;;;;;;;2.33;1.52;;;;;;;27.42;79.00;100199.00;4820519;29;20034;-91
2023/08/16 11:56:01;;;;;;;3.85;1.60;;;;;;;27.48;75.52;100188.28;4802485;29;20063;-93
2023/08/16 11:58:27;;;;;;;1.55;1.45;;;;;;;27.56;74.33;100165.56;4796311;29;20050;-93
2023/08/16 12:00:53;;;;;;;9.57;1.02;;;;;;;27.65;73.54;100180.13;4780072;29;20403;-92
2023/08/16 12:03:19;;;;;;;1.33;1.15;;;;;;;27.65;74.15;100173.66;4802734;29;20065;-92
2023/08/16 12:05:49;;;;;;;0.82;0.73;;;;;;;27.98;74.85;100157.84;4818609;29;20499;-92
2023/08/16 12:08:20;;;;;;;1.08;0.90;;;;;;;28.11;72.03;100163.50;4790928;29;20053;-92
2023/08/16 12:10:55;;;;;;;2.13;1.15;;;;;;;28.40;73.00;100162.25;4812488;29;20042;-91
2023/08/16 12:13:23;;;;;;;0.63;0.63;;;;;;;28.71;63.59;100163.28;4789165;29;20050;-92
2023/08/16 12:15:49;;;;;;;1.27;1.17;;;;;;;28.83;62.28;100158.03;4772473;29;20051;-91
2023/08/16 12:18:15;;;;;;;2.20;1.00;;;;;;;28.72;61.66;100165.56;4803179;29;20117;-92
2023/08/16 12:20:41;;;;;;;0.88;0.82;;;;;;;29.25;61.14;100170.81;4817424;29;20519;-93
2023/08/16 12:23:08;;;;;;;1.23;0.90;;;;;;;29.11;57.96;100166.56;4816621;29;20090;-92
2023/08/16 12:25:34;;;;;;;1.13;0.80;;;;;;;29.60;57.18;100161.44;4803526;29;20053;-92
2023/08/16 12:28:00;;;;;;;3.83;1.15;;;;;;;29.85;56.50;100163.78;4804249;29;20086;-92
2023/08/16 12:30:28;;;;;;;1.65;1.20;;;;;;;29.83;55.00;100149.31;4793892;29;20121;-92
2023/08/16 12:32:54;;;;;;;0.43;0.43;;;;;;;30.01;52.14;100153.91;4799933;29;20135;-92
2023/08/16 12:35:19;;;;;;;3.90;1.65;;;;;;;29.74;53.53;100153.47;4821554;29;20054;-92
2023/08/16 12:37:45;;;;;;;0.82;0.80;;;;;;;29.68;54.57;100155.75;4829263;29;20110;-93
2023/08/16 12:40:11;;;;;;;1.52;1.42;;;;;;;29.65;53.74;100148.31;4822844;29;20046;-92
2023/08/16 12:42:37;;;;;;;2.47;2.25;;;;;;;29.81;52.47;100152.72;4835463;29;20061;-92
2023/08/16 12:45:03;;;;;;;1.15;1.05;;;;;;;29.82;51.00;100164.94;4828358;29;20045;-91
2023/08/16 12:47:29;;;;;;;1.20;1.08;;;;;;;29.83;50.19;100160.75;4826304;29;20038;-92
2023/08/16 12:49:55;;;;;;;0.60;0.60;;;;;;;29.50;47.86;100169.03;4837817;29;20482;-92
2023/08/16 12:52:21;;;;;;;2.67;1.17;;;;;;;29.19;46.82;100161.66;4837967;29;20453;-93
2023/08/16 12:54:46;;;;;;;1.42;1.20;;;;;;;29.09;48.72;100157.78;4834869;29;20605;-92
2023/08/16 12:57:12;;;;;;;0.40;0.40;;;;;;;29.12;48.42;100162.34;4830425;29;20367;-93
2023/08/16 12:59:37;;;;;;;0.63;0.63;;;;;;;28.98;49.66;100158.09;4829684;29;20050;-93
2023/08/16 13:02:03;;;;;;;1.20;1.08;;;;;;;29.11;51.73;100161.63;4822586;29;20452;-91
2023/08/16 13:04:29;;;;;;;1.33;0.55;;;;;;;29.06;52.62;100156.06;4818433;29;20034;-92
2023/08/16 13:06:54;;;;;;;0.85;0.85;;;;;;;29.12;53.54;100151.69;4835205;29;20049;-92
2023/08/16 13:09:20;;;;;;;1.25;1.15;;;;;;;28.57;55.44;100142.59;4821526;29;20058;-93
2023/08/16 13:11:45;;;;;;;1.05;0.90;;;;;;;28.65;57.38;100136.94;4841130;29;20042;-91
2023/08/16 13:14:12;;;;;;;0.63;0.63;;;;;;;28.62;57.14;100138.84;4823891;29;20103;-91
2023/08/16 13:16:41;;;;;;;0.57;0.57;;;;;;;28.36;58.31;100132.53;4833248;29;20069;-91
2023/08/16 13:19:06;;;;;;;0.57;0.57;;;;;;;28.37;58.92;100134.84;4839570;29;20542;-94